Home > Products > Valid Products > TAF

000
FTUS45 KRIW 310500
TAFRIW
TAF
KRIW 310523Z 3106/0106 31007KT P6SM SCT130
     FM311300 VRB05KT P6SM SCT130
     FM312000 18007KT P6SM SCT130=



000
FTUS45 KRIW 310500
TAFCOD
TAF
KCOD 310523Z 3106/0106 18006KT P6SM SCT130
     FM311800 14007KT P6SM SCT130
     FM010200 20006KT P6SM SCT130
      AMD LTD TO CLD VIS AND WIND=



000
FTUS45 KRIW 310500
TAFWRL
TAF
KWRL 310523Z 3106/0106 VRB05KT P6SM SCT130
     FM010100 16007KT P6SM SCT130=



000
FTUS45 KRIW 310500
TAFJAC
TAF
KJAC 310523Z 3106/0106 36006KT P6SM SCT130
     FM311400 VRB05KT P6SM SCT130
     FM311900 18008KT P6SM SCT130
     FM010200 VRB05KT P6SM BKN140
      AMD LTD TO CLD VIS AND WIND=



000
FTUS45 KRIW 310500
TAFLND
TAF
KLND 310523Z 3106/0106 VRB05KT P6SM SCT130
     FM311900 18008KT P6SM SCT130
     FM010500 18006KT P6SM BKN150=



000
FTUS45 KRIW 310500
TAFCPR
TAF
KCPR 310523Z 3106/0106 VRB05KT P6SM SKC
     FM311100 20007KT P6SM FEW130
     FM311900 20014G22KT P6SM SCT130
     FM010100 21011KT P6SM SCT130=



000
FTUS45 KRIW 310500
TAFRKS
TAF
KRKS 310523Z 3106/0106 15008KT P6SM SCT130
     FM312000 20012G20KT P6SM SCT130
     FM010100 17009KT P6SM SCT130=



000
FTUS45 KRIW 310500
TAFBPI
TAF
KBPI 310523Z 3106/0106 VRB04KT P6SM SCT130
     FM312000 18007KT P6SM SCT130
     FM010200 VRB05KT P6SM SCT130=



000
FTUS45 KRIW 302300
TAFBPI
TAF
KBPI 302326Z 3100/3124 VRB04KT P6SM SCT110
     FM310300 VRB06KT P6SM SKC
     FM311900 VRB06KT P6SM SCT100=



000
FTUS45 KRIW 302300
TAFRKS
TAF
KRKS 302326Z 3100/3124 VRB05KT P6SM SKC
     FM311800 21012G18KT P6SM SCT100=



000
FTUS45 KRIW 302300
TAFCPR
TAF
KCPR 302326Z 3100/3124 VRB05KT P6SM SCT120
     FM310300 18010KT P6SM SKC
     FM311200 22012KT P6SM SKC
     FM311800 22020G30KT P6SM SCT100=



000
FTUS45 KRIW 302300
TAFJAC
TAF
KJAC 302326Z 3100/3124 18006KT P6SM SCT090
     FM310300 01005KT P6SM SKC
     FM311800 18008KT P6SM SCT090
      AMD LTD TO CLD VIS AND WIND=



000
FTUS45 KRIW 302300
TAFLND
TAF
KLND 302326Z 3100/3124 VRB06KT P6SM SCT110
     FM310200 VRB06KT P6SM SKC
     FM311800 19008KT P6SM FEW100=



000
FTUS45 KRIW 302300
TAFCOD
TAF
KCOD 302326Z 3100/3124 15007KT P6SM BKN120
     FM310600 19005KT P6SM FEW120
      AMD LTD TO CLD VIS AND WIND=



000
FTUS45 KRIW 302300
TAFRIW
TAF
KRIW 302326Z 3100/3124 VRB06KT P6SM SCT100
     FM310300 VRB06KT P6SM SKC
     FM311800 18007KT P6SM FEW100=



000
FTUS45 KRIW 302300
TAFWRL
TAF
KWRL 302326Z 3100/3124 VRB05KT P6SM SCT120
     FM310400 VRB06KT P6SM FEW100=



000
FTUS45 KRIW 301700
TAFCPR
TAF
KCPR 301720Z 3018/3118 VRB05KT P6SM SCT120
     FM310000 18010KT P6SM SKC
     FM311600 22012KT P6SM SKC=



000
FTUS45 KRIW 301700
TAFWRL
TAF
KWRL 301720Z 3018/3118 VRB06KT P6SM SCT120=



000
FTUS45 KRIW 301700
TAFCOD
TAF
KCOD 301720Z 3018/3118 15007KT P6SM BKN120
     FM310600 19005KT P6SM FEW120
      AMD LTD TO CLD VIS AND WIND=



000
FTUS45 KRIW 301700
TAFRIW
TAF
KRIW 301720Z 3018/3118 VRB06KT P6SM SCT100
     FM310600 VRB06KT P6SM SKC=



000
FTUS45 KRIW 301700
TAFRKS
TAF
KRKS 301720Z 3018/3118 VRB05KT P6SM FEW100
     FM302300 09006KT P6SM SKC
     FM310200 15006KT P6SM SKC=



000
FTUS45 KRIW 301700
TAFBPI
TAF
KBPI 301720Z 3018/3118 VRB06KT P6SM SCT110=



000
FTUS45 KRIW 301700
TAFLND
TAF
KLND 301720Z 3018/3118 VRB06KT P6SM SCT110
     FM310200 VRB06KT P6SM SKC=



000
FTUS45 KRIW 301700
TAFJAC
TAF
KJAC 301720Z 3018/3118 18006KT P6SM SCT090
     FM310300 01005KT P6SM SKC
      AMD LTD TO CLD VIS AND WIND=



000
FTUS45 KRIW 301100
TAFLND
TAF
KLND 301126Z 3012/3112 24007KT P6SM FEW110
     FM301900 14006KT P6SM FEW100
     FM310200 VRB04KT P6SM SKC=



000
FTUS45 KRIW 301100
TAFRKS
TAF
KRKS 301126Z 3012/3112 VRB05KT P6SM SKC
     FM302300 09006KT P6SM SKC
     FM310200 15006KT P6SM SKC=



000
FTUS45 KRIW 301100
TAFCPR
TAF
KCPR 301126Z 3012/3112 VRB05KT P6SM SKC
     FM310000 10010KT P6SM SKC
     FM310600 18008KT P6SM SKC=



000
FTUS45 KRIW 301100
TAFJAC
TAF
KJAC 301126Z 3012/3112 01004KT P6SM BKN090
     FM301700 18006KT P6SM FEW090
     FM310300 01005KT P6SM SKC
      AMD LTD TO CLD VIS AND WIND=



000
FTUS45 KRIW 301100
TAFCOD
TAF
KCOD 301126Z 3012/3112 VRB04KT P6SM SCT110
     FM301700 15007KT P6SM SCT120
     FM310600 19005KT P6SM FEW120
      AMD LTD TO CLD VIS AND WIND=



000
FTUS45 KRIW 301100
TAFWRL
TAF
KWRL 301126Z 3012/3112 14005KT P6SM FEW120=



000
FTUS45 KRIW 301100
TAFRIW
TAF
KRIW 301126Z 3012/3112 VRB04KT P6SM FEW110
     FM301800 08006KT P6SM FEW100
     FM310600 VRB05KT P6SM SKC=



000
FTUS45 KRIW 301100
TAFBPI
TAF
KBPI 301126Z 3012/3112 VRB04KT P6SM FEW100
     FM301700 14006KT P6SM SKC=



000
FTUS45 KRIW 300500
TAFWRL
TAF
KWRL 300529Z 3006/3106 VRB04KT P6SM SKC=



000
FTUS45 KRIW 300500
TAFRIW
TAF
KRIW 300529Z 3006/3106 VRB05KT P6SM SCT250
     FM302000 14006KT P6SM FEW100
     FM310200 VRB04KT P6SM SKC=



000
FTUS45 KRIW 300500
TAFCOD
TAF
KCOD 300529Z 3006/3106 VRB04KT P6SM SKC
     FM302000 15007KT P6SM FEW100
     FM310200 VRB03KT P6SM SKC
      AMD LTD TO CLD VIS AND WIND=



000
FTUS45 KRIW 300500
TAFCPR
TAF
KCPR 300529Z 3006/3106 VRB04KT P6SM SKC
     FM301200 21005KT P6SM SKC
     FM302000 22007KT P6SM FEW100
     FM310200 VRB05KT P6SM SKC=



000
FTUS45 KRIW 300500
TAFLND
TAF
KLND 300529Z 3006/3106 24007KT P6SM SKC
     FM301900 14006KT P6SM FEW100
     FM310200 VRB04KT P6SM SKC=



000
FTUS45 KRIW 300500
TAFRKS
TAF
KRKS 300529Z 3006/3106 29008KT P6SM SKC
     FM302000 26006KT P6SM FEW100
     FM310200 VRB04KT P6SM SKC=



000
FTUS45 KRIW 300500
TAFJAC
TAF
KJAC 300529Z 3006/3106 VRB05KT P6SM SCT050
     FM301200 16005KT P6SM SKC
     FM301900 18006KT P6SM FEW090
     FM310200 VRB04KT P6SM SKC
      AMD LTD TO CLD VIS AND WIND=



000
FTUS45 KRIW 300500
TAFBPI
TAF
KBPI 300529Z 3006/3106 VRB04KT P6SM SKC
     FM302000 14006KT P6SM FEW090
     FM310200 VRB03KT P6SM SKC=



000
FTUS45 KRIW 292300
TAFRIW
TAF
KRIW 292334Z 3000/3024 31020G28KT P6SM FEW090 SCT150
     FM300200 30014KT P6SM FEW140
     FM300500 30010KT P6SM SKC=



000
FTUS45 KRIW 292300
TAFLND
TAF
KLND 292334Z 3000/3024 30012KT P6SM SCT090 SCT150
     FM300200 29009KT P6SM FEW130
     FM300500 26007KT P6SM SKC=



000
FTUS45 KRIW 292300
TAFCPR
TAF
KCPR 292334Z 3000/3024 30012G18KT P6SM SCT150
     FM300300 28010KT P6SM FEW150
     FM300500 24006KT P6SM SKC=



000
FTUS45 KRIW 292300
TAFJAC
TAF
KJAC 292334Z 3000/3024 21012G18KT P6SM SCT050 BKN080
     FM300200 19007KT P6SM FEW070 SCT110
     FM300700 VRB06KT P6SM FEW120
      AMD LTD TO CLD VIS AND WIND=



000
FTUS45 KRIW 292300
TAFRKS
TAF
KRKS 292334Z 3000/3024 29022G28KT P6SM FEW080 SCT150
     FM300200 28013G20KT P6SM FEW120
     FM300500 25008KT P6SM SKC=



000
FTUS45 KRIW 292300
TAFCOD
TAF
KCOD 292334Z 3000/3024 26009G15KT P6SM FEW090
     FM300300 VRB05KT P6SM SKC
      AMD LTD TO CLD VIS AND WIND=



000
FTUS45 KRIW 292300
TAFWRL
TAF
KWRL 292334Z 3000/3024 31011KT P6SM SCT130 SCT200
     FM300200 29008KT P6SM FEW140
     FM300500 VRB05KT P6SM SKC=



000
FTUS45 KRIW 292300
TAFBPI
TAF
KBPI 292334Z 3000/3024 32014KT P6SM FEW060 SCT100
     FM300200 33009KT P6SM FEW100
     FM300500 VRB05KT P6SM SKC=



000
FTUS45 KRIW 292000 AAA
TAFRIW
TAF AMD
KRIW 292003Z 2920/3018 28011KT P6SM FEW100 BKN150
     FM292100 30024G33KT P6SM FEW090 SCT150
     FM300200 30014KT P6SM FEW090 SCT150
     FM300500 30015G25KT P6SM FEW140=



000
FTUS45 KRIW 292000 AAA
TAFLND
TAF AMD
KLND 292002Z 2920/3018 30012G23KT P6SM SCT090 SCT150
     FM300200 29009KT P6SM FEW140
     FM300500 26007KT P6SM SKC=



000
FTUS45 KRIW 292000 AAA
TAFCPR
TAF AMD
KCPR 292001Z 2920/3018 26020G32KT P6SM FEW090 BKN150
     FM292200 29013G19KT P6SM FEW080 SCT150
     FM300000 29008KT P6SM FEW150
     FM300500 24006KT P6SM SCT150=



000
FTUS45 KRIW 291700
TAFCPR
TAF
KCPR 291721Z 2918/3018 22018G28KT P6SM FEW090 BKN150
     FM292000 29013G19KT P6SM FEW080 SCT150
     FM300000 29008KT P6SM FEW150
     FM300500 24006KT P6SM SCT150=



000
FTUS45 KRIW 291700
TAFRIW
TAF
KRIW 291721Z 2918/3018 22008KT P6SM FEW100 BKN150
      TEMPO 2918/2920 29015KT
     FM292000 30024G33KT P6SM FEW090 SCT150
     FM300200 30014KT P6SM FEW090 SCT150
     FM300500 30015G25KT P6SM FEW140=



000
FTUS45 KRIW 291700
TAFRKS
TAF
KRKS 291721Z 2918/3018 25013KT P6SM FEW090 SCT150
     FM291900 26018G24KT P6SM FEW080 SCT150
     FM292200 27024G32KT P6SM FEW080 SCT150
     FM300200 28012G20KT P6SM SCT120
     FM300500 25008KT P6SM FEW120=



000
FTUS45 KRIW 291700
TAFWRL
TAF
KWRL 291721Z 2918/3018 VRB05KT P6SM FEW130 SCT200
     FM292200 31012G18KT P6SM FEW130 SCT200
     FM300200 29008KT P6SM FEW090 SCT150
     FM300500 VRB06KT P6SM FEW130=



000
FTUS45 KRIW 291700
TAFJAC
TAF
KJAC 291721Z 2918/3018 21007KT P6SM VCSH SCT040 BKN050
     FM291900 21012G18KT P6SM SCT050 BKN080
     FM300200 19006KT P6SM FEW070 SCT110
     FM300700 36006KT P6SM FEW060 SCT120
      AMD LTD TO CLD VIS AND WIND=



000
FTUS45 KRIW 291700
TAFBPI
TAF
KBPI 291721Z 2918/3018 27011KT P6SM FEW060 BKN150
     FM292000 29016G24KT P6SM FEW060 SCT100
     FM300200 31010KT P6SM FEW100
     FM300500 VRB05KT P6SM SKC=



000
FTUS45 KRIW 291700
TAFCOD
TAF
KCOD 291721Z 2918/3018 26016G24KT P6SM FEW080 SCT130
     FM300000 25011KT P6SM FEW090
     FM300300 VRB05KT P6SM SKC
      AMD LTD TO CLD VIS AND WIND=



000
FTUS45 KRIW 291700
TAFLND
TAF
KLND 291721Z 2918/3018 30011KT P6SM SCT090 SCT150
     FM300200 29009KT P6SM FEW140
     FM300500 26007KT P6SM SKC=



000
FTUS45 KRIW 291100
TAFLND
TAF
KLND 291124Z 2912/3012 VRB05KT P6SM SCT200
     FM291800 30013KT P6SM SCT090 SCT150
     FM300200 29009KT P6SM FEW140
     FM300500 26007KT P6SM SKC=



000
FTUS45 KRIW 291100
TAFWRL
TAF
KWRL 291124Z 2912/3012 VRB05KT P6SM FEW130 SCT200
     FM292200 31012G18KT P6SM FEW130 SCT200
     FM300200 29008KT P6SM FEW090 SCT150
     FM300500 VRB05KT P6SM FEW130=



000
FTUS45 KRIW 291100
TAFBPI
TAF
KBPI 291124Z 2912/3012 VRB04KT P6SM SCT150
     FM291800 27011KT P6SM FEW060 BKN150
     FM292000 29016G24KT P6SM FEW060 SCT100
     FM300200 31010KT P6SM FEW100
     FM300500 VRB05KT P6SM SKC=



000
FTUS45 KRIW 291100
TAFCPR
TAF
KCPR 291124Z 2912/3012 23012G18KT P6SM SCT200
     FM291400 24016G26KT P6SM FEW090 SCT150
     FM291700 25020G30KT P6SM SCT090 BKN150
     FM292000 29013G19KT P6SM FEW080 SCT150
     FM300000 29008KT P6SM FEW150
     FM300500 24006KT P6SM SCT150=



000
FTUS45 KRIW 291100
TAFCOD
TAF
KCOD 291124Z 2912/3012 24016G24KT P6SM SCT070 BKN120
     FM291700 26016G24KT P6SM FEW080 SCT130
     FM300000 25011KT P6SM FEW090
     FM300300 25005KT P6SM SKC
      AMD LTD TO CLD VIS AND WIND=



000
FTUS45 KRIW 291100
TAFRKS
TAF
KRKS 291124Z 2912/3012 25013KT P6SM FEW090 SCT150
     FM291900 26018G24KT P6SM FEW080 SCT150
     FM292200 27024G32KT P6SM FEW080 SCT150
     FM300200 28012G20KT P6SM SCT120
     FM300500 25008KT P6SM FEW120=



000
FTUS45 KRIW 291100
TAFJAC
TAF
KJAC 291124Z 2912/3012 VRB04KT P6SM VCSH SCT040 BKN050
     FM291500 21007KT P6SM VCSH SCT040 BKN050
     FM291900 21012G18KT P6SM SCT050 BKN080
     FM300200 19006KT P6SM FEW070 SCT110
     FM300700 36006KT P6SM FEW060 SCT120
      AMD LTD TO CLD VIS AND WIND=



000
FTUS45 KRIW 291100
TAFRIW
TAF
KRIW 291124Z 2912/3012 28012KT P6SM FEW200
     FM291500 24008KT P6SM SCT150
     FM291800 27016KT P6SM FEW100 BKN150
     FM292000 30024G33KT P6SM FEW090 SCT150
     FM300200 30014KT P6SM FEW090 SCT150
     FM300500 30015G25KT P6SM FEW140=



000
FTUS45 KRIW 290500
TAFLND
TAF
KLND 290526Z 2906/3006 VRB05KT P6SM FEW200
     FM291400 24009KT P6SM SCT150
     FM291800 26016G24KT P6SM FEW100 BKN150 WS020/27040KT
     FM292200 30013KT P6SM SCT090 SCT150
     FM300200 29009KT P6SM FEW140
     FM300500 26007KT P6SM SKC=



000
FTUS45 KRIW 290500
TAFCOD
TAF
KCOD 290526Z 2906/3006 24014G22KT P6SM SCT150
      TEMPO 2908/2912 24020G32KT
     FM291700 26016G24KT P6SM SCT100 BKN150
     FM291900 27024G34KT P6SM SCT090 WS020/27045KT
     FM300000 28018G27KT P6SM FEW090
     FM300300 25010KT P6SM SKC
      AMD LTD TO CLD VIS AND WIND=



000
FTUS45 KRIW 290500
TAFJAC
TAF
KJAC 290526Z 2906/3006 VRB04KT P6SM SCT150
     FM291500 21007KT P6SM FEW080 BKN150
     FM291900 23011KT P6SM SCT080 BKN130
     FM292200 26016G22KT P6SM BKN070
     FM300200 25012KT P6SM FEW070 SCT110
      AMD LTD TO CLD VIS AND WIND=



000
FTUS45 KRIW 290500
TAFRIW
TAF
KRIW 290526Z 2906/3006 28012KT P6SM FEW200
     FM291500 24008KT P6SM SCT150
     FM291800 27016KT P6SM FEW100 BKN150
     FM292000 30024G33KT P6SM SCT090 BKN150 WS020/30045KT
     FM292300 31020G30KT P6SM SCT090 SCT150
     FM300200 30014KT P6SM FEW090 SCT150
     FM300500 28008KT P6SM FEW140=



000
FTUS45 KRIW 290500
TAFWRL
TAF
KWRL 290526Z 2906/3006 VRB05KT P6SM FEW200
     FM291800 09009KT P6SM FEW100 SCT150
     FM292200 31012G18KT P6SM SCT090 BKN150
     FM300200 29008KT P6SM FEW090 SCT150
     FM300400 VRB05KT P6SM FEW130=



000
FTUS45 KRIW 290500
TAFRKS
TAF
KRKS 290526Z 2906/3006 22007KT P6SM FEW200
     FM291700 25013KT P6SM FEW090 SCT150
     FM291900 26018G24KT P6SM SCT080 BKN150
     FM292200 28024G32KT P6SM BKN080
     FM300200 29016G22KT P6SM SCT090
     FM300500 27012KT P6SM FEW100=



000
FTUS45 KRIW 290500
TAFBPI
TAF
KBPI 290526Z 2906/3006 VRB04KT P6SM SCT150
     FM291800 27011KT P6SM FEW060 BKN150
     FM292100 29018G26KT P6SM SCT050 SCT100
     FM300200 31010KT P6SM FEW100
     FM300500 VRB05KT P6SM SKC=



000
FTUS45 KRIW 290500
TAFCPR
TAF
KCPR 290526Z 2906/3006 24009KT P6SM FEW200
     FM291200 23014G22KT P6SM SCT200
     FM291800 24020G34KT P6SM FEW090 SCT150
     FM292100 26026G36KT P6SM SCT090 BKN150
     FM300100 29018G26KT P6SM FEW080 SCT150
     FM300300 30015KT P6SM FEW150=



000
FTUS45 KRIW 282300
TAFCPR
TAF
KCPR 282340Z 2900/2924 24015G24KT P6SM SCT200
     FM290200 23008KT P6SM SCT200
     FM290900 22014G22KT P6SM SKC
     FM291200 22018G32KT P6SM FEW100
     FM291900 25020G33KT P6SM SCT070=



000
FTUS45 KRIW 282300
TAFRIW
TAF
KRIW 282340Z 2900/2924 29009KT P6SM SCT200
     FM290600 30012G18KT P6SM SKC
     FM291400 VRB06KT P6SM FEW250
     FM292100 31011KT P6SM SCT150=



000
FTUS45 KRIW 282300
TAFWRL
TAF
KWRL 282340Z 2900/2924 VRB05KT P6SM SCT200=



000
FTUS45 KRIW 282300
TAFRKS
TAF
KRKS 282340Z 2900/2924 26014KT P6SM FEW070
     FM290200 25009KT P6SM FEW100
     FM292000 26016G30KT P6SM SCT150=



000
FTUS45 KRIW 282300
TAFLND
TAF
KLND 282340Z 2900/2924 VRB05KT P6SM SCT200
     FM291400 24010KT P6SM SCT200 WS020/28040KT
     FM291800 30011KT P6SM SCT150=



000
FTUS45 KRIW 282300
TAFBPI
TAF
KBPI 282340Z 2900/2924 29008KT P6SM FEW080
     FM290300 VRB04KT P6SM FEW100
     FM291900 29011G18KT P6SM SCT050=



000
FTUS45 KRIW 282300
TAFCOD
TAF
KCOD 282340Z 2900/2924 VRB05KT P6SM FEW100
     FM290200 21006KT P6SM FEW100
     FM290900 25016G26KT P6SM SCT100 WS020/27040KT
     FM291300 25013KT P6SM SCT080 WS020/27045KT
      AMD LTD TO CLD VIS AND WIND=



000
FTUS45 KRIW 282300
TAFJAC
TAF
KJAC 282340Z 2900/2924 19007KT P6SM FEW070
     FM290300 36006KT P6SM BKN090
     FM291300 VRB04KT P6SM VCFG BKN030
     FM291900 19006KT P6SM SCT030 BKN060
      AMD LTD TO CLD VIS AND WIND=



000
FTUS45 KRIW 281700
TAFLND
TAF
KLND 281721Z 2818/2918 VRB05KT P6SM SCT200
     FM291400 24010KT P6SM SCT200 WS020/28040KT=



000
FTUS45 KRIW 281700
TAFBPI
TAF
KBPI 281721Z 2818/2918 VRB05KT P6SM SCT200
     FM282000 29009KT P6SM FEW080
     FM290100 VRB05KT P6SM FEW100=



000
FTUS45 KRIW 281700
TAFRKS
TAF
KRKS 281721Z 2818/2918 26014G24KT P6SM FEW070
     FM290100 25010KT P6SM FEW100=



000
FTUS45 KRIW 281700
TAFCOD
TAF
KCOD 281721Z 2818/2918 VRB05KT P6SM FEW100
     FM290200 21006KT P6SM FEW100
     FM290500 25010G16KT P6SM SCT100
     FM290900 25016G26KT P6SM SCT100 WS020/27040KT
     FM291300 25013KT P6SM SCT080 WS020/27045KT
      AMD LTD TO CLD VIS AND WIND=



000
FTUS45 KRIW 281700
TAFWRL
TAF
KWRL 281721Z 2818/2918 VRB05KT P6SM SCT200=



000
FTUS45 KRIW 281700
TAFJAC
TAF
KJAC 281721Z 2818/2918 VRB04KT P6SM SCT060
     FM282000 19007KT P6SM SCT070
     FM290300 36006KT P6SM SCT090
     FM290900 36006KT P6SM BKN050
     FM291300 VRB04KT P6SM VCFG BKN030
      AMD LTD TO CLD VIS AND WIND=



000
FTUS45 KRIW 281700
TAFRIW
TAF
KRIW 281721Z 2818/2918 29009KT P6SM SCT200
     FM290600 30012G18KT P6SM SKC
     FM291400 VRB06KT P6SM FEW250=



000
FTUS45 KRIW 281700
TAFCPR
TAF
KCPR 281721Z 2818/2918 24015G24KT P6SM SCT200
     FM290100 24008KT P6SM SCT200
     FM290900 22014G22KT P6SM SKC
     FM291200 22018G32KT P6SM FEW100=



000
FTUS45 KRIW 281100
TAFBPI
TAF
KBPI 281126Z 2812/2912 VRB05KT P6SM SCT200
     FM282000 29009KT P6SM FEW080
     FM290100 VRB05KT P6SM FEW100=



000
FTUS45 KRIW 281100
TAFCOD
TAF
KCOD 281126Z 2812/2912 VRB05KT P6SM FEW100
     FM290200 21006KT P6SM FEW100
     FM290500 25010G16KT P6SM SCT100
     FM290900 25016G26KT P6SM SCT100
      AMD LTD TO CLD VIS AND WIND=



000
FTUS45 KRIW 281100
TAFRKS
TAF
KRKS 281126Z 2812/2912 25010KT P6SM SCT200
     FM281830 26014G24KT P6SM FEW070
     FM290100 25010KT P6SM FEW100=



000
FTUS45 KRIW 281100
TAFLND
TAF
KLND 281126Z 2812/2912 VRB05KT P6SM SCT200=



000
FTUS45 KRIW 281100
TAFRIW
TAF
KRIW 281126Z 2812/2912 30011KT P6SM SCT200
     FM281500 VRB06KT P6SM SCT200
     FM290200 29007KT P6SM SCT200
     FM290600 30012G18KT P6SM SKC=



000
FTUS45 KRIW 281100
TAFWRL
TAF
KWRL 281126Z 2812/2912 VRB05KT P6SM SCT200=



000
FTUS45 KRIW 281100
TAFJAC
TAF
KJAC 281126Z 2812/2912 VRB04KT P6SM VCFG FEW015 SCT200
     FM281630 VRB04KT P6SM SCT060
     FM282000 19007KT P6SM SCT070
     FM290300 36006KT P6SM SCT090
     FM290900 36006KT P6SM BKN050
      AMD LTD TO CLD VIS AND WIND=



000
FTUS45 KRIW 281100
TAFCPR
TAF
KCPR 281126Z 2812/2912 24007KT P6SM SCT200
     FM281800 24013G21KT P6SM SCT200
     FM290100 24008KT P6SM SCT200
     FM290900 22014G22KT P6SM SKC=



    US Dept of Commerce
    National Oceanic and Atmospheric Administration
    National Weather Service
    1325 East West Highway
    Silver Spring, MD 20910
    Page Author: NWS Internet Services Team
Disclaimer
Information Quality
Credits
Glossary
Privacy Policy
Freedom of Information Act (FOIA)
About Us
Career Opportunities